createdAt,value
2019-01-03T00:00:19.450Z,1029.84
2019-01-03T00:01:19.439Z,1029.81
2019-01-03T00:02:19.431Z,1029.77
2019-01-03T00:03:19.419Z,1029.75
2019-01-03T00:04:19.412Z,1029.76
2019-01-03T00:05:19.400Z,1029.79
2019-01-03T00:06:19.394Z,1029.74
2019-01-03T00:07:19.381Z,1029.75
2019-01-03T00:08:19.374Z,1029.74
2019-01-03T00:09:19.364Z,1029.75
2019-01-03T00:10:19.356Z,1029.71
2019-01-03T00:11:19.343Z,1029.82
2019-01-03T00:12:19.336Z,1029.80
2019-01-03T00:13:19.326Z,1029.82
2019-01-03T00:14:19.319Z,1029.84
2019-01-03T00:15:19.306Z,1029.87
2019-01-03T00:16:19.299Z,1029.85
2019-01-03T00:17:19.587Z,1029.88
2019-01-03T00:18:19.281Z,1029.91
2019-01-03T00:19:19.269Z,1029.89
2019-01-03T00:20:19.262Z,1029.87
2019-01-03T00:21:19.254Z,1029.88
2019-01-03T00:22:19.263Z,1029.88
2019-01-03T00:23:19.231Z,1029.87
2019-01-03T00:24:19.225Z,1029.87
2019-01-03T00:25:19.212Z,1029.85
2019-01-03T00:26:19.207Z,1029.83
2019-01-03T00:27:19.193Z,1029.86
2019-01-03T00:28:19.211Z,1029.84
2019-01-03T00:29:19.175Z,1029.86
2019-01-03T00:30:19.168Z,1029.82
2019-01-03T00:31:19.156Z,1029.82
2019-01-03T00:32:19.150Z,1029.85
2019-01-03T00:33:19.138Z,1029.88
2019-01-03T00:34:19.139Z,1029.90
2019-01-03T00:35:19.119Z,1029.85
2019-01-03T00:36:19.111Z,1029.86
2019-01-03T00:37:19.103Z,1029.89
2019-01-03T00:38:19.106Z,1029.89
2019-01-03T00:39:19.080Z,1029.94
2019-01-03T00:40:19.083Z,1029.96
2019-01-03T00:41:19.061Z,1029.97
2019-01-03T00:42:19.056Z,1029.97
2019-01-03T00:43:19.042Z,1030.03
2019-01-03T00:44:19.035Z,1030.01
2019-01-03T00:45:19.027Z,1030.05
2019-01-03T00:46:19.017Z,1030.03
2019-01-03T00:47:19.004Z,1030.03
2019-01-03T00:48:18.998Z,1030.08
2019-01-03T00:49:18.987Z,1030.09
2019-01-03T00:50:18.979Z,1030.14
2019-01-03T00:51:18.966Z,1030.20
2019-01-03T00:52:18.961Z,1030.18
2019-01-03T00:53:18.950Z,1030.18
2019-01-03T00:54:18.943Z,1030.18
2019-01-03T00:55:18.928Z,1030.22
2019-01-03T00:56:18.922Z,1030.22
2019-01-03T00:57:18.911Z,1030.22
2019-01-03T00:58:18.903Z,1030.25
2019-01-03T00:59:18.891Z,1030.22
2019-01-03T01:00:18.885Z,1030.24
2019-01-03T01:01:18.873Z,1030.27
2019-01-03T01:02:18.866Z,1030.31
2019-01-03T01:03:18.853Z,1030.32
2019-01-03T01:04:18.849Z,1030.39
2019-01-03T01:05:18.834Z,1030.31
2019-01-03T01:06:18.829Z,1030.36
2019-01-03T01:07:18.815Z,1030.41
2019-01-03T01:08:18.812Z,1030.42
2019-01-03T01:09:18.796Z,1030.42
2019-01-03T01:10:18.790Z,1030.44
2019-01-03T01:11:18.779Z,1030.46
2019-01-03T01:12:18.777Z,1030.47
2019-01-03T01:13:18.759Z,1030.44
2019-01-03T01:14:18.752Z,1030.45
2019-01-03T01:15:18.739Z,1030.48
2019-01-03T01:16:18.746Z,1030.48
2019-01-03T01:17:18.722Z,1030.46
2019-01-03T01:18:18.715Z,1030.53
2019-01-03T01:19:18.702Z,1030.49
2019-01-03T01:20:18.695Z,1030.57
2019-01-03T01:21:18.685Z,1030.56
2019-01-03T01:22:18.678Z,1030.59
2019-01-03T01:23:18.668Z,1030.58
2019-01-03T01:24:18.660Z,1030.58
2019-01-03T01:25:18.649Z,1030.54
2019-01-03T01:26:18.640Z,1030.54
2019-01-03T01:27:18.628Z,1030.54
2019-01-03T01:28:18.621Z,1030.53
2019-01-03T01:29:18.610Z,1030.54
2019-01-03T01:30:18.603Z,1030.49
2019-01-03T01:31:18.592Z,1030.52
2019-01-03T01:32:18.584Z,1030.52
2019-01-03T01:33:18.573Z,1030.54
2019-01-03T01:34:18.566Z,1030.56
2019-01-03T01:35:18.554Z,1030.57
2019-01-03T01:36:18.550Z,1030.61
2019-01-03T01:37:18.535Z,1030.59
2019-01-03T01:38:18.529Z,1030.58
2019-01-03T01:39:18.519Z,1030.66
2019-01-03T01:40:18.517Z,1030.63
2019-01-03T01:41:18.498Z,1030.63
2019-01-03T01:42:18.492Z,1030.59
2019-01-03T01:43:18.479Z,1030.54
2019-01-03T01:44:18.472Z,1030.54
2019-01-03T01:45:18.460Z,1030.51
2019-01-03T01:46:18.453Z,1030.50
2019-01-03T01:47:18.441Z,1030.49
2019-01-03T01:48:18.443Z,1030.52
2019-01-03T01:49:18.426Z,1030.56
2019-01-03T01:50:18.416Z,1030.52
2019-01-03T01:51:18.426Z,1030.52
2019-01-03T01:52:18.398Z,1030.50
2019-01-03T01:53:18.385Z,1030.49
2019-01-03T01:54:18.380Z,1030.47
2019-01-03T01:55:18.367Z,1030.46
2019-01-03T01:56:18.360Z,1030.45
2019-01-03T01:57:18.348Z,1030.44
2019-01-03T01:58:18.342Z,1030.47
2019-01-03T01:59:18.330Z,1030.51
2019-01-03T02:00:18.323Z,1030.53
2019-01-03T02:01:18.312Z,1030.52
2019-01-03T02:02:18.305Z,1030.57
2019-01-03T02:03:18.293Z,1030.58
2019-01-03T02:04:18.286Z,1030.60
2019-01-03T02:05:18.275Z,1030.64
2019-01-03T02:06:18.269Z,1030.61
2019-01-03T02:07:18.255Z,1030.58
2019-01-03T02:08:18.250Z,1030.58
2019-01-03T02:09:18.247Z,1030.58
2019-01-03T02:10:18.498Z,1030.61
2019-01-03T02:11:18.220Z,1030.61
2019-01-03T02:12:18.212Z,1030.57
2019-01-03T02:13:18.202Z,1030.57
2019-01-03T02:14:18.199Z,1030.54
2019-01-03T02:15:18.187Z,1030.52
2019-01-03T02:16:18.191Z,1030.49
2019-01-03T02:17:18.164Z,1030.50
2019-01-03T02:18:18.158Z,1030.50
2019-01-03T02:19:18.148Z,1030.48
2019-01-03T02:20:18.139Z,1030.48
2019-01-03T02:21:18.128Z,1030.43
2019-01-03T02:22:18.127Z,1030.47
2019-01-03T02:23:18.109Z,1030.44
2019-01-03T02:24:18.114Z,1030.43
2019-01-03T02:25:18.095Z,1030.43
2019-01-03T02:26:18.084Z,1030.44
2019-01-03T02:27:18.073Z,1030.42
2019-01-03T02:28:18.066Z,1030.42
2019-01-03T02:29:18.058Z,1030.39
2019-01-03T02:30:18.050Z,1030.40
2019-01-03T02:31:18.038Z,1030.33
2019-01-03T02:32:18.030Z,1030.35
2019-01-03T02:33:18.018Z,1030.32
2019-01-03T02:34:18.013Z,1030.33
2019-01-03T02:35:18.001Z,1030.33
2019-01-03T02:36:17.993Z,1030.29
2019-01-03T02:37:17.983Z,1030.31
2019-01-03T02:38:17.989Z,1030.28
2019-01-03T02:39:17.964Z,1030.29
2019-01-03T02:40:17.958Z,1030.31
2019-01-03T02:41:17.956Z,1030.29
2019-01-03T02:42:17.940Z,1030.28
2019-01-03T02:43:17.933Z,1030.24
2019-01-03T02:44:17.924Z,1030.29
2019-01-03T02:45:17.922Z,1030.26
2019-01-03T02:46:17.905Z,1030.26
2019-01-03T02:47:17.894Z,1030.26
2019-01-03T02:48:17.886Z,1030.25
2019-01-03T02:49:17.874Z,1030.23
2019-01-03T02:50:17.868Z,1030.23
2019-01-03T02:51:17.856Z,1030.21
2019-01-03T02:52:17.850Z,1030.20
2019-01-03T02:53:17.839Z,1030.18
2019-01-03T02:54:17.834Z,1030.16
2019-01-03T02:55:17.820Z,1030.15
2019-01-03T02:56:17.817Z,1030.19
2019-01-03T02:57:17.805Z,1030.20
2019-01-03T02:58:17.803Z,1030.25
2019-01-03T02:59:17.784Z,1030.28
2019-01-03T03:00:17.778Z,1030.25
2019-01-03T03:01:17.767Z,1030.23
2019-01-03T03:02:17.760Z,1030.34
2019-01-03T03:03:17.749Z,1030.32
2019-01-03T03:04:17.742Z,1030.32
2019-01-03T03:05:17.732Z,1030.34
2019-01-03T03:06:17.726Z,1030.34
2019-01-03T03:07:17.713Z,1030.38
2019-01-03T03:08:17.707Z,1030.43
2019-01-03T03:09:17.698Z,1030.33
2019-01-03T03:10:17.690Z,1030.36
2019-01-03T03:11:17.692Z,1030.38
2019-01-03T03:12:17.671Z,1030.33
2019-01-03T03:13:17.661Z,1030.35
2019-01-03T03:14:17.654Z,1030.33
2019-01-03T03:15:17.641Z,1030.35
2019-01-03T03:16:17.636Z,1030.34
2019-01-03T03:17:17.624Z,1030.31
2019-01-03T03:18:17.619Z,1030.29
2019-01-03T03:19:17.609Z,1030.24
2019-01-03T03:20:17.599Z,1030.25
2019-01-03T03:21:17.588Z,1030.29
2019-01-03T03:22:17.582Z,1030.36
2019-01-03T03:23:17.589Z,1030.28
2019-01-03T03:24:17.563Z,1030.29
2019-01-03T03:25:17.553Z,1030.29
2019-01-03T03:26:17.545Z,1030.27
2019-01-03T03:27:17.534Z,1030.28
2019-01-03T03:28:17.526Z,1030.29
2019-01-03T03:29:17.516Z,1030.31
2019-01-03T03:30:17.553Z,1030.35
2019-01-03T03:31:17.498Z,1030.34
2019-01-03T03:32:17.493Z,1030.34
2019-01-03T03:33:17.493Z,1030.30
2019-01-03T03:34:17.473Z,1030.29
2019-01-03T03:35:17.461Z,1030.36
2019-01-03T03:36:17.455Z,1030.33
2019-01-03T03:37:17.448Z,1030.34
2019-01-03T03:38:17.436Z,1030.29
2019-01-03T03:39:17.427Z,1030.24
2019-01-03T03:40:17.419Z,1030.23
2019-01-03T03:41:17.407Z,1030.23
2019-01-03T03:42:17.403Z,1030.23
2019-01-03T03:43:17.388Z,1030.19
2019-01-03T03:44:17.384Z,1030.16
2019-01-03T03:45:17.371Z,1030.10
2019-01-03T03:46:17.364Z,1030.12
2019-01-03T03:47:17.353Z,1030.12
2019-01-03T03:48:17.358Z,1030.12
2019-01-03T03:49:17.348Z,1030.12
2019-01-03T03:50:17.338Z,1030.10
2019-01-03T03:51:17.316Z,1030.09
2019-01-03T03:52:17.317Z,1030.11
2019-01-03T03:53:17.301Z,1030.14
2019-01-03T03:54:17.300Z,1030.11
2019-01-03T03:55:17.283Z,1030.08
2019-01-03T03:56:17.273Z,1030.11
2019-01-03T03:57:17.269Z,1030.12
2019-01-03T03:58:17.254Z,1030.11
2019-01-03T03:59:17.258Z,1030.14
2019-01-03T04:00:17.243Z,1030.15
2019-01-03T04:01:17.228Z,1030.12
2019-01-03T04:02:17.217Z,1030.11
2019-01-03T04:03:17.213Z,1030.12
2019-01-03T04:04:17.200Z,1030.12
2019-01-03T04:05:17.192Z,1030.12
2019-01-03T04:06:17.181Z,1030.14
2019-01-03T04:07:17.174Z,1030.10
2019-01-03T04:08:17.168Z,1030.12
2019-01-03T04:09:17.156Z,1030.13
2019-01-03T04:10:17.146Z,1030.14
2019-01-03T04:11:17.138Z,1030.13
2019-01-03T04:12:17.127Z,1030.16
2019-01-03T04:13:17.120Z,1030.11
2019-01-03T04:14:17.111Z,1030.09
2019-01-03T04:15:17.102Z,1030.06
2019-01-03T04:16:17.092Z,1030.09
2019-01-03T04:17:17.086Z,1030.02
2019-01-03T04:18:17.081Z,1030.04
2019-01-03T04:19:17.066Z,1030.06
2019-01-03T04:20:17.055Z,1030.02
2019-01-03T04:21:17.049Z,1030.05
2019-01-03T04:22:17.038Z,1030.03
2019-01-03T04:23:17.030Z,1030.02
2019-01-03T04:24:17.019Z,1030.03
2019-01-03T04:25:17.014Z,1030.05
2019-01-03T04:26:17.001Z,1030.02
2019-01-03T04:27:16.995Z,1030.06
2019-01-03T04:28:16.985Z,1030.01
2019-01-03T04:29:16.979Z,1030.03
2019-01-03T04:30:16.977Z,1030.02
2019-01-03T04:31:16.958Z,1030.04
2019-01-03T04:32:16.947Z,1030.06
2019-01-03T04:33:16.944Z,1030.07
2019-01-03T04:34:16.962Z,1030.06
2019-01-03T04:35:16.922Z,1030.06
2019-01-03T04:36:16.913Z,1030.07
2019-01-03T04:37:16.904Z,1030.06
2019-01-03T04:38:16.894Z,1030.01
2019-01-03T04:39:16.888Z,1030.00
2019-01-03T04:40:16.881Z,1030.04
2019-01-03T04:41:16.870Z,1030.09
2019-01-03T04:42:16.858Z,1030.09
2019-01-03T04:43:16.851Z,1030.14
2019-01-03T04:44:16.843Z,1030.12
2019-01-03T04:45:16.833Z,1030.11
2019-01-03T04:46:16.823Z,1030.08
2019-01-03T04:47:16.816Z,1030.06
2019-01-03T04:48:16.804Z,1030.08
2019-01-03T04:49:16.797Z,1030.07
2019-01-03T04:50:16.786Z,1030.10
2019-01-03T04:51:16.783Z,1030.10
2019-01-03T04:52:16.768Z,1030.13
2019-01-03T04:53:16.764Z,1030.07
2019-01-03T04:54:16.751Z,1030.06
2019-01-03T04:55:16.746Z,1030.05
2019-01-03T04:56:16.733Z,1030.04
2019-01-03T04:57:16.732Z,1030.05
2019-01-03T04:58:16.715Z,1030.03
2019-01-03T04:59:16.708Z,1030.01
2019-01-03T05:00:16.697Z,1030.00
2019-01-03T05:01:16.689Z,1030.01
2019-01-03T05:02:16.681Z,1029.96
2019-01-03T05:03:16.671Z,1029.95
2019-01-03T05:04:16.661Z,1029.96
2019-01-03T05:05:16.664Z,1029.97
2019-01-03T05:06:16.643Z,1029.95
2019-01-03T05:07:16.634Z,1029.95
2019-01-03T05:08:16.623Z,1029.97
2019-01-03T05:09:16.617Z,1029.96
2019-01-03T05:10:16.655Z,1029.95
2019-01-03T05:11:16.598Z,1029.97
2019-01-03T05:12:16.590Z,1030.00
2019-01-03T05:13:16.582Z,1029.99
2019-01-03T05:14:16.569Z,1029.99
2019-01-03T05:15:16.562Z,1030.03
2019-01-03T05:16:16.551Z,1030.02
2019-01-03T05:17:16.545Z,1030.03
2019-01-03T05:18:16.533Z,1029.97
2019-01-03T05:19:16.526Z,1029.98
2019-01-03T05:20:16.514Z,1030.00
2019-01-03T05:21:16.508Z,1029.92
2019-01-03T05:22:16.497Z,1029.95
2019-01-03T05:23:16.490Z,1029.97
2019-01-03T05:24:16.477Z,1029.96
2019-01-03T05:25:16.471Z,1029.93
2019-01-03T05:26:16.466Z,1029.97
2019-01-03T05:27:16.470Z,1029.99
2019-01-03T05:28:16.446Z,1029.99
2019-01-03T05:29:16.434Z,1030.00
2019-01-03T05:30:18.429Z,1029.99
2019-01-03T05:31:16.416Z,1030.01
2019-01-03T05:32:16.415Z,1030.02
2019-01-03T05:33:16.414Z,1030.05
2019-01-03T05:34:16.388Z,1030.07
2019-01-03T05:35:16.379Z,1030.07
2019-01-03T05:36:16.368Z,1030.06
2019-01-03T05:37:16.373Z,1030.08
2019-01-03T05:38:16.350Z,1030.05
2019-01-03T05:39:16.347Z,1030.08
2019-01-03T05:40:16.334Z,1030.06
2019-01-03T05:41:16.324Z,1030.04
2019-01-03T05:42:16.313Z,1030.06
2019-01-03T05:43:16.306Z,1030.05
2019-01-03T05:44:16.296Z,1030.01
2019-01-03T05:45:16.288Z,1030.06
2019-01-03T05:46:16.290Z,1030.01
2019-01-03T05:47:16.270Z,1030.08
2019-01-03T05:48:16.262Z,1030.04
2019-01-03T05:49:16.259Z,1030.09
2019-01-03T05:50:16.241Z,1030.07
2019-01-03T05:51:16.233Z,1030.10
2019-01-03T05:52:16.223Z,1030.10
2019-01-03T05:53:16.213Z,1030.07
2019-01-03T05:54:16.202Z,1030.04
2019-01-03T05:55:16.194Z,1030.00
2019-01-03T05:56:16.185Z,1030.01
2019-01-03T05:57:16.177Z,1030.01
2019-01-03T05:58:16.165Z,1030.01
2019-01-03T05:59:16.163Z,1030.04
2019-01-03T06:00:16.146Z,1030.08
2019-01-03T06:01:16.140Z,1030.06
2019-01-03T06:02:16.130Z,1030.11
2019-01-03T06:03:16.121Z,1030.12
2019-01-03T06:04:16.109Z,1030.17
2019-01-03T06:05:16.355Z,1030.15
2019-01-03T06:06:16.091Z,1030.21
2019-01-03T06:07:16.083Z,1030.17
2019-01-03T06:08:16.072Z,1030.18
2019-01-03T06:09:16.065Z,1030.19
2019-01-03T06:10:16.053Z,1030.16
2019-01-03T06:11:16.046Z,1030.18
2019-01-03T06:12:16.035Z,1030.19
2019-01-03T06:13:16.028Z,1030.19
2019-01-03T06:14:16.017Z,1030.21
2019-01-03T06:15:16.010Z,1030.18
2019-01-03T06:16:15.999Z,1030.11
2019-01-03T06:17:15.990Z,1030.14
2019-01-03T06:18:15.979Z,1030.16
2019-01-03T06:19:15.974Z,1030.13
2019-01-03T06:20:15.960Z,1030.16
2019-01-03T06:21:15.953Z,1030.13
2019-01-03T06:22:15.942Z,1030.19
2019-01-03T06:23:15.935Z,1030.22
2019-01-03T06:24:15.923Z,1030.19
2019-01-03T06:25:15.917Z,1030.13
2019-01-03T06:26:15.905Z,1030.18
2019-01-03T06:27:15.897Z,1030.12
2019-01-03T06:28:15.886Z,1030.11
2019-01-03T06:29:15.879Z,1030.11
2019-01-03T06:30:15.868Z,1030.06
2019-01-03T06:31:15.864Z,1030.06
2019-01-03T06:32:15.849Z,1030.06
2019-01-03T06:33:15.842Z,1030.06
2019-01-03T06:34:15.831Z,1030.05
2019-01-03T06:35:15.823Z,1030.02
2019-01-03T06:36:15.814Z,1030.00
2019-01-03T06:37:15.811Z,1030.00
2019-01-03T06:38:15.798Z,1030.03
2019-01-03T06:39:15.787Z,1030.06
2019-01-03T06:40:15.775Z,1030.06
2019-01-03T06:41:15.769Z,1030.06
2019-01-03T06:42:15.758Z,1030.08
2019-01-03T06:43:15.750Z,1030.10
2019-01-03T06:44:15.741Z,1030.08
2019-01-03T06:45:15.732Z,1030.09
2019-01-03T06:46:15.721Z,1030.11
2019-01-03T06:47:15.713Z,1030.09
2019-01-03T06:48:20.090Z,1030.04
2019-01-03T06:49:15.696Z,1030.04
2019-01-03T06:50:15.685Z,1030.03
2019-01-03T06:51:15.689Z,1030.03
2019-01-03T06:52:15.667Z,1030.04
2019-01-03T06:53:15.660Z,1030.08
2019-01-03T06:54:15.648Z,1030.06
2019-01-03T06:55:15.641Z,1030.06
2019-01-03T06:56:15.630Z,1030.05
2019-01-03T06:57:15.624Z,1030.00
2019-01-03T06:58:15.662Z,1029.99
2019-01-03T06:59:15.605Z,1030.02
2019-01-03T07:00:15.594Z,1029.99
2019-01-03T07:01:15.587Z,1030.00
2019-01-03T07:02:15.590Z,1030.03
2019-01-03T07:03:15.580Z,1030.05
2019-01-03T07:04:15.613Z,1030.08
2019-01-03T07:05:15.551Z,1030.09
2019-01-03T07:06:15.540Z,1030.07
2019-01-03T07:07:15.532Z,1030.11
2019-01-03T07:08:15.521Z,1030.10
2019-01-03T07:09:15.525Z,1030.12
2019-01-03T07:10:15.506Z,1030.16
2019-01-03T07:11:15.496Z,1030.11
2019-01-03T07:12:15.485Z,1030.18
2019-01-03T07:13:15.478Z,1030.18
2019-01-03T07:14:15.467Z,1030.25
2019-01-03T07:15:15.460Z,1030.24
2019-01-03T07:16:15.448Z,1030.28
2019-01-03T07:17:15.442Z,1030.32
2019-01-03T07:18:15.432Z,1030.34
2019-01-03T07:19:15.422Z,1030.34
2019-01-03T07:20:15.412Z,1030.34
2019-01-03T07:21:15.405Z,1030.34
2019-01-03T07:22:15.395Z,1030.32
2019-01-03T07:23:15.387Z,1030.35
2019-01-03T07:24:15.378Z,1030.38
2019-01-03T07:25:15.370Z,1030.41
2019-01-03T07:26:15.361Z,1030.42
2019-01-03T07:27:15.353Z,1030.40
2019-01-03T07:28:15.339Z,1030.37
2019-01-03T07:29:15.332Z,1030.41
2019-01-03T07:30:15.321Z,1030.41
2019-01-03T07:31:15.314Z,1030.43
2019-01-03T07:32:15.303Z,1030.45
2019-01-03T07:33:15.296Z,1030.45
2019-01-03T07:34:15.285Z,1030.53
2019-01-03T07:35:15.281Z,1030.56
2019-01-03T07:36:15.267Z,1030.60
2019-01-03T07:37:15.260Z,1030.64
2019-01-03T07:38:15.249Z,1030.62
2019-01-03T07:39:15.241Z,1030.64
2019-01-03T07:40:15.229Z,1030.62
2019-01-03T07:41:15.223Z,1030.65
2019-01-03T07:42:15.213Z,1030.67
2019-01-03T07:43:15.204Z,1030.57
2019-01-03T07:44:15.193Z,1030.57
2019-01-03T07:45:15.189Z,1030.61
2019-01-03T07:46:15.176Z,1030.63
2019-01-03T07:47:15.169Z,1030.62
2019-01-03T07:48:15.157Z,1030.67
2019-01-03T07:49:15.150Z,1030.68
2019-01-03T07:50:15.140Z,1030.67
2019-01-03T07:51:15.139Z,1030.68
2019-01-03T07:52:15.122Z,1030.71
2019-01-03T07:53:15.114Z,1030.72
2019-01-03T07:54:15.103Z,1030.74
2019-01-03T07:55:15.096Z,1030.75
2019-01-03T07:56:15.085Z,1030.74
2019-01-03T07:57:15.079Z,1030.75
2019-01-03T07:58:15.069Z,1030.76
2019-01-03T07:59:15.081Z,1030.79
2019-01-03T08:00:15.050Z,1030.82
2019-01-03T08:01:15.043Z,1030.84
2019-01-03T08:02:15.032Z,1030.86
2019-01-03T08:03:15.024Z,1030.85
2019-01-03T08:04:15.015Z,1030.87
2019-01-03T08:05:15.008Z,1030.85
2019-01-03T08:06:14.997Z,1030.87
2019-01-03T08:07:14.989Z,1030.90
2019-01-03T08:08:14.978Z,1030.94
2019-01-03T08:09:14.972Z,1030.92
2019-01-03T08:10:14.964Z,1030.92
2019-01-03T08:11:14.953Z,1030.97
2019-01-03T08:12:14.945Z,1030.94
2019-01-03T08:13:14.934Z,1030.92
2019-01-03T08:14:14.928Z,1030.93
2019-01-03T08:15:14.917Z,1030.93
2019-01-03T08:16:14.915Z,1030.89
2019-01-03T08:17:14.899Z,1030.90
2019-01-03T08:18:14.895Z,1030.88
2019-01-03T08:19:14.883Z,1030.91
2019-01-03T08:20:14.875Z,1030.94
2019-01-03T08:21:14.864Z,1030.90
2019-01-03T08:22:14.858Z,1030.93
2019-01-03T08:23:14.846Z,1030.90
2019-01-03T08:24:14.839Z,1030.96
2019-01-03T08:25:14.828Z,1030.97
2019-01-03T08:26:14.825Z,1030.98
2019-01-03T08:27:14.810Z,1030.96
2019-01-03T08:28:14.804Z,1031.00
2019-01-03T08:29:14.793Z,1030.99
2019-01-03T08:30:14.786Z,1030.99
2019-01-03T08:31:14.775Z,1031.02
2019-01-03T08:32:14.769Z,1030.98
2019-01-03T08:33:14.758Z,1030.91
2019-01-03T08:34:14.751Z,1030.94
2019-01-03T08:35:14.739Z,1030.88
2019-01-03T08:36:14.733Z,1030.89
2019-01-03T08:37:14.722Z,1030.89
2019-01-03T08:38:14.716Z,1030.85
2019-01-03T08:39:14.704Z,1030.89
2019-01-03T08:40:14.697Z,1030.89
2019-01-03T08:41:14.687Z,1030.89
2019-01-03T08:42:14.690Z,1030.89
2019-01-03T08:43:14.668Z,1030.86
2019-01-03T08:44:14.663Z,1030.90
2019-01-03T08:45:14.652Z,1030.87
2019-01-03T08:46:14.671Z,1030.85
2019-01-03T08:47:14.633Z,1030.88
2019-01-03T08:48:14.640Z,1030.93
2019-01-03T08:49:14.615Z,1030.91
2019-01-03T08:50:14.609Z,1030.94
2019-01-03T08:51:14.598Z,1030.91
2019-01-03T08:52:14.590Z,1030.93
2019-01-03T08:53:14.581Z,1030.95
2019-01-03T08:54:14.573Z,1030.91
2019-01-03T08:55:14.562Z,1030.93
2019-01-03T08:56:14.555Z,1030.93
2019-01-03T08:57:14.544Z,1030.94
2019-01-03T08:58:14.538Z,1030.97
2019-01-03T08:59:14.528Z,1031.00
2019-01-03T09:00:14.520Z,1031.00
2019-01-03T09:01:14.510Z,1030.99
2019-01-03T09:02:14.503Z,1030.99
2019-01-03T09:03:14.493Z,1030.98
2019-01-03T09:04:14.485Z,1030.99
2019-01-03T09:05:14.475Z,1031.02
2019-01-03T09:06:14.468Z,1031.02
2019-01-03T09:07:14.456Z,1031.01
2019-01-03T09:08:14.450Z,1031.03
2019-01-03T09:09:14.440Z,1031.10
2019-01-03T09:10:14.433Z,1031.16
2019-01-03T09:11:14.422Z,1031.14
2019-01-03T09:12:14.415Z,1031.09
2019-01-03T09:13:14.405Z,1031.08
2019-01-03T09:14:14.398Z,1031.06
2019-01-03T09:15:14.386Z,1031.09
2019-01-03T09:16:14.380Z,1031.08
2019-01-03T09:17:14.369Z,1031.07
2019-01-03T09:18:14.363Z,1031.09
2019-01-03T09:19:14.353Z,1031.06
2019-01-03T09:20:14.346Z,1031.03
2019-01-03T09:21:14.335Z,1031.04
2019-01-03T09:22:14.329Z,1031.07
2019-01-03T09:23:14.316Z,1031.05
2019-01-03T09:24:14.310Z,1031.07
2019-01-03T09:25:14.299Z,1031.06
2019-01-03T09:26:14.293Z,1031.07
2019-01-03T09:27:14.282Z,1031.05
2019-01-03T09:28:14.275Z,1031.08
2019-01-03T09:29:14.264Z,1031.05
2019-01-03T09:30:14.258Z,1031.02
2019-01-03T09:31:14.246Z,1031.04
2019-01-03T09:32:14.240Z,1031.02
2019-01-03T09:33:14.230Z,1031.00
2019-01-03T09:34:14.223Z,1031.04
2019-01-03T09:35:14.216Z,1031.09
2019-01-03T09:36:14.207Z,1031.08
2019-01-03T09:37:14.195Z,1031.10
2019-01-03T09:38:14.188Z,1031.11
2019-01-03T09:39:14.177Z,1031.10
2019-01-03T09:40:14.421Z,1031.10
2019-01-03T09:41:14.159Z,1031.06
2019-01-03T09:42:14.154Z,1031.11
2019-01-03T09:43:14.142Z,1031.11
2019-01-03T09:44:14.135Z,1031.13
2019-01-03T09:45:14.124Z,1031.07
2019-01-03T09:46:14.124Z,1031.07
2019-01-03T09:47:14.107Z,1031.08
2019-01-03T09:48:14.099Z,1031.06
2019-01-03T09:49:14.090Z,1031.07
2019-01-03T09:50:14.085Z,1031.12
2019-01-03T09:51:14.072Z,1031.10
2019-01-03T09:52:14.065Z,1031.07
2019-01-03T09:53:14.055Z,1031.08
2019-01-03T09:54:14.049Z,1031.06
2019-01-03T09:55:14.038Z,1031.03
2019-01-03T09:56:14.031Z,1031.05
2019-01-03T09:57:14.021Z,1031.07
2019-01-03T09:58:14.070Z,1031.07
2019-01-03T09:59:14.003Z,1031.07
2019-01-03T10:00:13.999Z,1031.08
2019-01-03T10:01:14.032Z,1031.07
2019-01-03T10:02:13.981Z,1031.03
2019-01-03T10:03:13.970Z,1031.02
2019-01-03T10:04:13.968Z,1031.00
2019-01-03T10:05:13.954Z,1031.01
2019-01-03T10:06:13.948Z,1031.00
2019-01-03T10:07:13.937Z,1031.00
2019-01-03T10:08:19.579Z,1031.04
2019-01-03T10:09:13.922Z,1031.04
2019-01-03T10:10:13.922Z,1031.02
2019-01-03T10:11:13.904Z,1031.04
2019-01-03T10:12:13.899Z,1031.06
2019-01-03T10:13:13.889Z,1031.09
2019-01-03T10:14:13.882Z,1031.07
2019-01-03T10:15:13.872Z,1031.08
2019-01-03T10:16:13.866Z,1031.10
2019-01-03T10:17:13.855Z,1031.10
2019-01-03T10:18:13.849Z,1031.14
2019-01-03T10:19:13.837Z,1031.11
2019-01-03T10:20:13.832Z,1031.09
2019-01-03T10:21:13.822Z,1031.10
2019-01-03T10:22:13.817Z,1031.11
2019-01-03T10:23:13.805Z,1031.08
2019-01-03T10:24:13.805Z,1031.09
2019-01-03T10:25:13.804Z,1031.05
2019-01-03T10:26:13.784Z,1031.05
2019-01-03T10:27:13.772Z,1031.06
2019-01-03T10:28:13.767Z,1030.99
2019-01-03T10:29:13.757Z,1031.01
2019-01-03T10:30:13.753Z,1031.02
2019-01-03T10:31:13.749Z,1030.98
2019-01-03T10:32:13.754Z,1030.94
2019-01-03T10:33:13.725Z,1030.95
2019-01-03T10:34:13.721Z,1030.89
2019-01-03T10:35:13.708Z,1030.90
2019-01-03T10:36:13.702Z,1030.91
2019-01-03T10:37:13.693Z,1030.89
2019-01-03T10:38:13.687Z,1030.92
2019-01-03T10:39:13.677Z,1030.92
2019-01-03T10:40:13.673Z,1030.85
2019-01-03T10:41:13.911Z,1030.88
2019-01-03T10:42:13.655Z,1030.84
2019-01-03T10:43:13.644Z,1030.83
2019-01-03T10:44:13.638Z,1030.78
2019-01-03T10:45:13.628Z,1030.81
2019-01-03T10:46:13.629Z,1030.73
2019-01-03T10:47:13.612Z,1030.70
2019-01-03T10:48:13.606Z,1030.71
2019-01-03T10:49:13.595Z,1030.69
2019-01-03T10:50:13.592Z,1030.66
2019-01-03T10:51:13.579Z,1030.64
2019-01-03T10:52:13.573Z,1030.63
2019-01-03T10:53:13.568Z,1030.63
2019-01-03T10:54:13.557Z,1030.63
2019-01-03T10:55:13.546Z,1030.64
2019-01-03T10:56:13.540Z,1030.63
2019-01-03T10:57:13.531Z,1030.61
2019-01-03T10:58:13.525Z,1030.60
2019-01-03T10:59:13.513Z,1030.59
2019-01-03T11:00:13.508Z,1030.58
2019-01-03T11:01:13.501Z,1030.59
2019-01-03T11:02:13.492Z,1030.59
2019-01-03T11:03:13.482Z,1030.56
2019-01-03T11:04:13.479Z,1030.57
2019-01-03T11:05:13.466Z,1030.55
2019-01-03T11:06:13.461Z,1030.63
2019-01-03T11:07:13.455Z,1030.61
2019-01-03T11:08:13.446Z,1030.64
2019-01-03T11:09:13.434Z,1030.67
2019-01-03T11:10:13.430Z,1030.60
2019-01-03T11:11:13.668Z,1030.53
2019-01-03T11:12:13.413Z,1030.53
2019-01-03T11:13:13.403Z,1030.55
2019-01-03T11:14:13.397Z,1030.55
2019-01-03T11:15:13.386Z,1030.54
2019-01-03T11:16:13.381Z,1030.52
2019-01-03T11:17:13.371Z,1030.51
2019-01-03T11:18:13.364Z,1030.53
2019-01-03T11:19:13.353Z,1030.57
2019-01-03T11:20:13.348Z,1030.53
2019-01-03T11:21:13.337Z,1030.57
2019-01-03T11:22:13.332Z,1030.60
2019-01-03T11:23:13.323Z,1030.64
2019-01-03T11:24:13.316Z,1030.58
2019-01-03T11:25:13.305Z,1030.60
2019-01-03T11:26:13.299Z,1030.57
2019-01-03T11:27:13.289Z,1030.63
2019-01-03T11:28:13.284Z,1030.60
2019-01-03T11:29:13.273Z,1030.55
2019-01-03T11:30:13.268Z,1030.54
2019-01-03T11:31:13.256Z,1030.53
2019-01-03T11:32:13.251Z,1030.53
2019-01-03T11:33:13.243Z,1030.51
2019-01-03T11:34:13.261Z,1030.51
2019-01-03T11:35:13.224Z,1030.53
2019-01-03T11:36:13.220Z,1030.52
2019-01-03T11:37:13.213Z,1030.56
2019-01-03T11:38:13.204Z,1030.51
2019-01-03T11:39:13.200Z,1030.48
2019-01-03T11:40:13.188Z,1030.47
2019-01-03T11:41:13.428Z,1030.45
2019-01-03T11:42:13.172Z,1030.49
2019-01-03T11:43:13.162Z,1030.47
2019-01-03T11:44:13.157Z,1030.48
2019-01-03T11:45:13.146Z,1030.46
2019-01-03T11:46:13.142Z,1030.51
2019-01-03T11:47:13.130Z,1030.49
2019-01-03T11:48:13.125Z,1030.49
2019-01-03T11:49:13.116Z,1030.46
2019-01-03T11:50:13.110Z,1030.48
2019-01-03T11:51:13.099Z,1030.44
2019-01-03T11:52:13.094Z,1030.43
2019-01-03T11:53:13.084Z,1030.45
2019-01-03T11:54:13.079Z,1030.47
2019-01-03T11:55:13.068Z,1030.49
2019-01-03T11:56:13.064Z,1030.52
2019-01-03T11:57:13.054Z,1030.52
2019-01-03T11:58:13.049Z,1030.51
2019-01-03T11:59:13.037Z,1030.53
2019-01-03T12:00:13.032Z,1030.58
2019-01-03T12:01:13.023Z,1030.52
2019-01-03T12:02:13.017Z,1030.56
2019-01-03T12:03:13.007Z,1030.56
2019-01-03T12:04:13.001Z,1030.54
2019-01-03T12:05:12.993Z,1030.55